Time;durP1;ratioP1;P1;durP2;ratioP2;P2;SDS_P1;SDS_P2;PMS_P1;PMS_P2;Temp;Humidity;BMP_temperature;BMP_pressure;BME280_temperature;BME280_humidity;BME280_pressure;Samples;Min_cycle;Max_cycle;Signal;HPM_P1;HPM_P2
2023/04/11 00:02:11;;;;;;;25.15;15.85;;;;;;;;;;6224498;22;20024;-66
2023/04/11 00:04:39;;;;;;;22.50;16.20;;;;;;;;;;6249137;22;20016;-66
2023/04/11 00:07:09;;;;;;;23.65;16.33;;;;;;;;;;6248931;22;20015;-68
2023/04/11 00:09:37;;;;;;;22.58;15.68;;;;;;;;;;6249495;22;20066;-68
2023/04/11 00:12:06;;;;;;;21.75;15.85;;;;;;;;;;6224530;22;20024;-67
2023/04/11 00:14:33;;;;;;;21.98;15.05;;;;;;;;;;6275968;22;20078;-67
2023/04/11 00:17:01;;;;;;;21.00;15.25;;;;;;;;;;6249258;22;20015;-67
2023/04/11 00:19:32;;;;;;;23.02;15.18;;;;;;;;;;6224630;22;20027;-66
2023/04/11 00:22:00;;;;;;;22.65;16.23;;;;;;;;;;6252059;22;20040;-67
2023/04/11 00:24:28;;;;;;;22.27;16.27;;;;;;;;;;6251372;22;20011;-65
2023/04/11 00:26:57;;;;;;;24.90;16.90;;;;;;;;;;6251208;22;20016;-66
2023/04/11 00:29:24;;;;;;;22.27;15.73;;;;;;;;;;6251211;22;20349;-66
2023/04/11 00:31:54;;;;;;;22.25;16.60;;;;;;;;;;6251027;22;20044;-67
2023/04/11 00:34:21;;;;;;;22.00;16.40;;;;;;;;;;6277860;22;20079;-67
2023/04/11 00:36:49;;;;;;;24.42;16.80;;;;;;;;;;6251110;22;20027;-68
2023/04/11 00:39:19;;;;;;;25.73;17.63;;;;;;;;;;6250973;22;20081;-68
2023/04/11 00:41:46;;;;;;;24.45;17.73;;;;;;;;;;6251193;22;20026;-67
2023/04/11 00:44:14;;;;;;;24.98;17.42;;;;;;;;;;6277851;22;20349;-67
2023/04/11 00:46:43;;;;;;;26.27;18.33;;;;;;;;;;6225842;22;20023;-67
2023/04/11 00:49:12;;;;;;;24.75;17.88;;;;;;;;;;6250660;22;20508;-66
2023/04/11 00:51:40;;;;;;;23.25;16.73;;;;;;;;;;6277455;22;20016;-66
2023/04/11 00:54:09;;;;;;;23.85;16.42;;;;;;;;;;6250574;22;20102;-66
2023/04/11 00:56:36;;;;;;;28.55;17.17;;;;;;;;;;6250590;22;20341;-65
2023/04/11 00:59:04;;;;;;;24.50;16.88;;;;;;;;;;6225215;22;20385;-65
2023/04/11 01:01:34;;;;;;;25.05;17.17;;;;;;;;;;6250646;22;20020;-65
2023/04/11 01:04:03;;;;;;;25.40;17.60;;;;;;;;;;6250137;22;20016;-65
2023/04/11 01:06:32;;;;;;;25.58;17.85;;;;;;;;;;6277642;22;20303;-65
2023/04/11 01:09:00;;;;;;;28.05;17.80;;;;;;;;;;6250284;22;20024;-65
2023/04/11 01:11:27;;;;;;;26.45;17.50;;;;;;;;;;6277166;22;20016;-65
2023/04/11 01:13:55;;;;;;;24.05;17.13;;;;;;;;;;6250191;22;20062;-65
2023/04/11 01:16:23;;;;;;;23.85;17.55;;;;;;;;;;6250160;22;20023;-65
2023/04/11 01:18:51;;;;;;;27.08;18.10;;;;;;;;;;6250065;22;20339;-65
2023/04/11 01:21:19;;;;;;;23.55;16.55;;;;;;;;;;6250749;22;20023;-65
2023/04/11 01:23:51;;;;;;;22.02;15.75;;;;;;;;;;6250602;22;20058;-65
2023/04/11 01:26:19;;;;;;;25.73;16.60;;;;;;;;;;6225042;22;20020;-65
2023/04/11 01:28:47;;;;;;;23.92;16.30;;;;;;;;;;6250400;22;20023;-65
2023/04/11 01:31:16;;;;;;;24.40;16.30;;;;;;;;;;6249655;22;20043;-65
2023/04/11 01:33:44;;;;;;;22.88;16.20;;;;;;;;;;6250164;22;20441;-65
2023/04/11 01:36:12;;;;;;;23.20;16.17;;;;;;;;;;6276968;22;20016;-65
2023/04/11 01:38:39;;;;;;;21.90;15.55;;;;;;;;;;6250241;22;20020;-65
2023/04/11 01:41:07;;;;;;;23.83;16.58;;;;;;;;;;6250111;22;20016;-65
2023/04/11 01:43:35;;;;;;;26.48;16.52;;;;;;;;;;6249653;22;20031;-65
2023/04/11 01:46:03;;;;;;;24.73;16.77;;;;;;;;;;6249909;22;20019;-65
2023/04/11 01:48:33;;;;;;;26.35;17.33;;;;;;;;;;6249945;22;20065;-65
2023/04/11 01:51:01;;;;;;;26.27;17.15;;;;;;;;;;6249811;22;20070;-65
2023/04/11 01:53:28;;;;;;;27.17;17.13;;;;;;;;;;6250054;22;20383;-65
2023/04/11 01:55:56;;;;;;;24.95;16.63;;;;;;;;;;6250049;22;20385;-64
2023/04/11 01:58:23;;;;;;;24.55;16.90;;;;;;;;;;6249575;22;20024;-65
2023/04/11 02:00:51;;;;;;;22.60;15.20;;;;;;;;;;6249834;22;20015;-65
2023/04/11 02:03:21;;;;;;;21.90;15.77;;;;;;;;;;6224666;22;20020;-66
2023/04/11 02:05:48;;;;;;;24.75;16.35;;;;;;;;;;6249870;22;20016;-65
2023/04/11 02:08:16;;;;;;;22.63;16.00;;;;;;;;;;6249403;22;20037;-65
2023/04/11 02:10:43;;;;;;;25.88;16.58;;;;;;;;;;6276744;22;20012;-65
2023/04/11 02:13:11;;;;;;;26.38;16.80;;;;;;;;;;6249984;22;20342;-65
2023/04/11 02:15:38;;;;;;;24.27;16.83;;;;;;;;;;6224426;22;20112;-65
2023/04/11 02:18:08;;;;;;;30.50;17.63;;;;;;;;;;6249435;22;20517;-65
2023/04/11 02:20:41;;;;;;;24.77;16.80;;;;;;;;;;6249441;22;20038;-65
2023/04/11 02:23:09;;;;;;;23.25;16.48;;;;;;;;;;6249311;22;20043;-65
2023/04/11 02:25:38;;;;;;;24.73;16.55;;;;;;;;;;6249342;22;20020;-65
2023/04/11 02:28:06;;;;;;;25.73;16.80;;;;;;;;;;6249310;22;20047;-65
2023/04/11 02:30:34;;;;;;;25.80;16.35;;;;;;;;;;6276357;22;20445;-65
2023/04/11 02:33:03;;;;;;;23.23;16.13;;;;;;;;;;6276677;22;20020;-65
2023/04/11 02:35:32;;;;;;;22.98;14.90;;;;;;;;;;6249290;22;20434;-65
2023/04/11 02:38:00;;;;;;;22.73;15.35;;;;;;;;;;6249776;22;20338;-65
2023/04/11 02:40:29;;;;;;;22.25;15.02;;;;;;;;;;6249254;22;20065;-65
2023/04/11 02:42:57;;;;;;;23.52;15.20;;;;;;;;;;6276493;22;20046;-65
2023/04/11 02:45:24;;;;;;;20.48;14.65;;;;;;;;;;6249580;22;20703;-65
2023/04/11 02:47:52;;;;;;;22.60;15.30;;;;;;;;;;6276074;22;20098;-65
2023/04/11 02:50:19;;;;;;;20.25;14.65;;;;;;;;;;6248977;22;20438;-65
2023/04/11 02:52:50;;;;;;;22.50;14.73;;;;;;;;;;6249132;22;20019;-65
2023/04/11 02:55:22;;;;;;;21.70;15.73;;;;;;;;;;6249336;22;20046;-65
2023/04/11 02:57:51;;;;;;;21.40;15.68;;;;;;;;;;6248978;22;20393;-65
2023/04/11 03:00:20;;;;;;;21.48;15.20;;;;;;;;;;6249327;22;20042;-65
2023/04/11 03:02:55;;;;;;;22.50;15.73;;;;;;;;;;6249612;22;20022;-65
2023/04/11 03:05:24;;;;;;;20.35;14.57;;;;;;;;;;6249087;22;20015;-65
2023/04/11 03:07:53;;;;;;;21.33;14.98;;;;;;;;;;6249099;22;20468;-65
2023/04/11 03:10:21;;;;;;;21.45;14.98;;;;;;;;;;6276655;22;20453;-65
2023/04/11 03:12:48;;;;;;;20.45;14.45;;;;;;;;;;6249477;22;20016;-66
2023/04/11 03:15:16;;;;;;;23.02;15.25;;;;;;;;;;6224078;22;20442;-66
2023/04/11 03:17:44;;;;;;;22.50;15.23;;;;;;;;;;6248923;22;20468;-66
2023/04/11 03:20:18;;;;;;;22.00;14.57;;;;;;;;;;6248879;22;20020;-66
2023/04/11 03:22:49;;;;;;;22.73;15.35;;;;;;;;;;6249003;22;20043;-66
2023/04/11 03:25:18;;;;;;;23.73;16.20;;;;;;;;;;6248987;22;20047;-66
2023/04/11 03:27:47;;;;;;;21.73;15.35;;;;;;;;;;6248782;22;20050;-66
2023/04/11 03:30:15;;;;;;;22.25;15.55;;;;;;;;;;6248815;22;20054;-66
2023/04/11 03:32:46;;;;;;;23.98;16.42;;;;;;;;;;6248837;22;20440;-66
2023/04/11 03:35:13;;;;;;;25.17;16.30;;;;;;;;;;6248805;22;20019;-66
2023/04/11 03:37:45;;;;;;;26.58;16.38;;;;;;;;;;6248781;22;20051;-65
2023/04/11 03:40:13;;;;;;;25.85;16.58;;;;;;;;;;6249208;22;20016;-66
2023/04/11 03:42:46;;;;;;;23.52;16.27;;;;;;;;;;6248630;22;20020;-66
2023/04/11 03:45:17;;;;;;;25.48;17.38;;;;;;;;;;6248851;22;20026;-66
2023/04/11 03:47:46;;;;;;;25.42;15.93;;;;;;;;;;6224239;22;20024;-66
2023/04/11 03:50:16;;;;;;;27.08;17.15;;;;;;;;;;6248713;22;20026;-66
2023/04/11 03:52:48;;;;;;;23.55;16.95;;;;;;;;;;6248409;22;20034;-65
2023/04/11 03:55:17;;;;;;;24.73;16.13;;;;;;;;;;6251308;22;20019;-65
2023/04/11 03:57:45;;;;;;;25.02;16.45;;;;;;;;;;6252078;22;20020;-66
2023/04/11 04:00:13;;;;;;;27.90;16.75;;;;;;;;;;6251951;22;20323;-66
2023/04/11 04:02:55;;;;;;;26.70;17.30;;;;;;;;;;6251801;22;20019;-66
2023/04/11 04:05:23;;;;;;;23.73;16.10;;;;;;;;;;6251995;22;20020;-66
2023/04/11 04:07:50;;;;;;;31.40;18.92;;;;;;;;;;6251824;22;20450;-65
2023/04/11 04:10:36;;;;;;;26.23;16.30;;;;;;;;;;6252354;22;20012;-66
2023/04/11 04:13:04;;;;;;;24.25;16.17;;;;;;;;;;6252336;22;20031;-66
2023/04/11 04:15:36;;;;;;;25.85;15.73;;;;;;;;;;6252183;22;20354;-66
2023/04/11 04:18:04;;;;;;;27.52;16.50;;;;;;;;;;6251989;22;20446;-66
2023/04/11 04:21:01;;;;;;;26.63;15.85;;;;;;;;;;6259880;22;20030;-66
2023/04/11 04:23:31;;;;;;;25.45;16.02;;;;;;;;;;6251834;22;20065;-66
2023/04/11 04:26:23;;;;;;;27.90;15.63;;;;;;;;;;6278258;22;20023;-66
2023/04/11 04:29:16;;;;;;;22.83;15.18;;;;;;;;;;6275274;22;20031;-66
2023/04/11 04:31:51;;;;;;;30.42;16.70;;;;;;;;;;6251596;22;20016;-66
2023/04/11 04:34:28;;;;;;;25.77;16.13;;;;;;;;;;6251872;22;20472;-66
2023/04/11 04:37:00;;;;;;;24.05;15.50;;;;;;;;;;6251781;22;20015;-66
2023/04/11 04:39:49;;;;;;;27.73;15.63;;;;;;;;;;6251756;22;20069;-66
2023/04/11 04:42:26;;;;;;;25.63;16.17;;;;;;;;;;6251838;22;20086;-66
2023/04/11 04:44:57;;;;;;;27.67;16.30;;;;;;;;;;6251751;22;20102;-66
2023/04/11 04:47:32;;;;;;;28.85;15.55;;;;;;;;;;6251794;22;20015;-67
2023/04/11 04:50:00;;;;;;;26.58;16.83;;;;;;;;;;6251602;22;20019;-67
2023/04/11 04:52:29;;;;;;;25.55;17.02;;;;;;;;;;6226525;22;20441;-67
2023/04/11 04:54:57;;;;;;;26.00;16.65;;;;;;;;;;6250966;22;20020;-67
2023/04/11 04:57:26;;;;;;;26.38;16.55;;;;;;;;;;6251401;22;20332;-67
2023/04/11 04:59:55;;;;;;;24.75;15.95;;;;;;;;;;6251900;22;20094;-67
2023/04/11 05:02:24;;;;;;;25.77;15.23;;;;;;;;;;6251935;22;20119;-67
2023/04/11 05:04:53;;;;;;;27.45;15.98;;;;;;;;;;6251657;22;20046;-67
2023/04/11 05:07:22;;;;;;;26.13;15.95;;;;;;;;;;6249576;22;20136;-66
2023/04/11 05:09:51;;;;;;;27.10;15.27;;;;;;;;;;6250196;22;20493;-67
2023/04/11 05:12:25;;;;;;;25.13;15.98;;;;;;;;;;6250511;22;20015;-67
2023/04/11 05:14:58;;;;;;;31.52;16.83;;;;;;;;;;6250234;22;20023;-66
2023/04/11 05:17:29;;;;;;;23.75;15.02;;;;;;;;;;6225732;22;20103;-66
2023/04/11 05:19:57;;;;;;;28.05;15.25;;;;;;;;;;6249927;22;20510;-66
2023/04/11 05:22:26;;;;;;;24.50;15.75;;;;;;;;;;6250080;22;20047;-66
2023/04/11 05:24:55;;;;;;;26.92;17.02;;;;;;;;;;6250105;22;20016;-66
2023/04/11 05:27:23;;;;;;;26.63;16.50;;;;;;;;;;6250011;22;20065;-67
2023/04/11 05:29:53;;;;;;;26.02;16.90;;;;;;;;;;6277127;22;20024;-67
2023/04/11 05:32:20;;;;;;;24.52;15.50;;;;;;;;;;6249903;22;20430;-67
2023/04/11 05:34:52;;;;;;;20.80;13.75;;;;;;;;;;6249903;22;20023;-67
2023/04/11 05:37:36;;;;;;;24.77;13.48;;;;;;;;;;6249808;22;20041;-66
2023/04/11 05:40:04;;;;;;;20.55;13.45;;;;;;;;;;6250033;22;20016;-67
2023/04/11 05:42:31;;;;;;;19.88;13.95;;;;;;;;;;6276961;22;20065;-67
2023/04/11 05:44:59;;;;;;;23.00;13.70;;;;;;;;;;6249920;22;20027;-66
2023/04/11 05:47:27;;;;;;;30.85;14.55;;;;;;;;;;6249780;22;20095;-67
2023/04/11 05:49:55;;;;;;;21.90;13.55;;;;;;;;;;6249825;22;20030;-67
2023/04/11 05:52:22;;;;;;;21.90;13.85;;;;;;;;;;6249778;22;20016;-67
2023/04/11 05:54:49;;;;;;;20.98;12.68;;;;;;;;;;6249898;22;20024;-67
2023/04/11 05:57:17;;;;;;;20.60;13.15;;;;;;;;;;6277000;22;20020;-67
2023/04/11 05:59:48;;;;;;;22.33;13.38;;;;;;;;;;6277226;22;20015;-67
2023/04/11 06:02:16;;;;;;;21.38;13.52;;;;;;;;;;6276807;22;20059;-67
2023/04/11 06:04:44;;;;;;;25.60;13.55;;;;;;;;;;6277066;22;20066;-67
2023/04/11 06:07:12;;;;;;;21.70;14.63;;;;;;;;;;6276970;22;20012;-67
2023/04/11 06:09:41;;;;;;;25.95;13.77;;;;;;;;;;6276783;22;20028;-67
2023/04/11 06:12:08;;;;;;;19.05;11.95;;;;;;;;;;6276800;22;20031;-67
2023/04/11 06:14:36;;;;;;;19.50;11.95;;;;;;;;;;6277148;22;20026;-67
2023/04/11 06:17:06;;;;;;;21.27;12.68;;;;;;;;;;6276414;22;20008;-67
2023/04/11 06:19:34;;;;;;;15.50;10.80;;;;;;;;;;6276714;22;20026;-67
2023/04/11 06:22:01;;;;;;;16.98;11.15;;;;;;;;;;6276839;22;20469;-67
2023/04/11 06:24:39;;;;;;;16.83;11.40;;;;;;;;;;6276734;22;20022;-67
2023/04/11 06:27:10;;;;;;;19.77;11.05;;;;;;;;;;6276803;22;20047;-67
2023/04/11 06:29:38;;;;;;;14.32;10.30;;;;;;;;;;6276421;22;20091;-67
2023/04/11 06:32:05;;;;;;;177.75;21.02;;;;;;;;;;6276622;22;20078;-67
2023/04/11 06:34:33;;;;;;;18.95;11.40;;;;;;;;;;6276403;22;20016;-67
2023/04/11 06:37:01;;;;;;;18.27;11.77;;;;;;;;;;6276728;22;20046;-67
2023/04/11 06:39:29;;;;;;;17.33;10.52;;;;;;;;;;6249792;22;20488;-67
2023/04/11 06:41:57;;;;;;;13.98;10.35;;;;;;;;;;6276482;22;20031;-67
2023/04/11 06:44:25;;;;;;;13.93;9.52;;;;;;;;;;6224515;22;20035;-65
2023/04/11 06:46:53;;;;;;;13.55;9.75;;;;;;;;;;6276728;22;20090;-66
2023/04/11 06:49:20;;;;;;;14.23;9.85;;;;;;;;;;6276924;22;20019;-66
2023/04/11 06:51:49;;;;;;;15.90;9.95;;;;;;;;;;6276666;22;20020;-67
2023/04/11 06:54:17;;;;;;;14.30;10.35;;;;;;;;;;6276308;22;20094;-66
2023/04/11 06:56:44;;;;;;;16.20;10.38;;;;;;;;;;6276129;22;20016;-65
2023/04/11 06:59:12;;;;;;;14.18;9.63;;;;;;;;;;6276398;22;20011;-67
2023/04/11 07:01:40;;;;;;;13.52;9.88;;;;;;;;;;6276158;22;20030;-67
2023/04/11 07:04:08;;;;;;;16.38;10.18;;;;;;;;;;6276330;22;20016;-67
2023/04/11 07:06:35;;;;;;;14.30;9.70;;;;;;;;;;6276259;22;20075;-67
2023/04/11 07:09:03;;;;;;;12.95;9.15;;;;;;;;;;6276498;22;20354;-67
2023/04/11 07:11:31;;;;;;;13.68;9.43;;;;;;;;;;6276176;22;20046;-67
2023/04/11 07:13:59;;;;;;;14.23;10.15;;;;;;;;;;6276193;22;20397;-67
2023/04/11 07:16:27;;;;;;;15.60;9.65;;;;;;;;;;6276280;22;20035;-67
2023/04/11 07:18:54;;;;;;;14.65;9.45;;;;;;;;;;6275923;22;20034;-67
2023/04/11 07:21:22;;;;;;;15.85;9.88;;;;;;;;;;6276141;22;20016;-67
2023/04/11 07:23:51;;;;;;;14.18;8.70;;;;;;;;;;6249518;22;20015;-67
2023/04/11 07:26:19;;;;;;;12.63;8.65;;;;;;;;;;6276083;22;20019;-67
2023/04/11 07:28:46;;;;;;;12.68;8.60;;;;;;;;;;6275380;22;20065;-67
2023/04/11 07:31:14;;;;;;;14.07;8.85;;;;;;;;;;6276121;22;20090;-68
2023/04/11 07:33:44;;;;;;;14.95;9.68;;;;;;;;;;6249165;22;20026;-67
2023/04/11 07:36:12;;;;;;;12.38;8.52;;;;;;;;;;6275674;22;20032;-67
2023/04/11 07:38:40;;;;;;;15.40;9.65;;;;;;;;;;6275348;22;20012;-67
2023/04/11 07:41:08;;;;;;;15.18;10.00;;;;;;;;;;6275109;22;20442;-67
2023/04/11 07:43:36;;;;;;;15.82;9.40;;;;;;;;;;6275261;22;20042;-67
2023/04/11 07:46:03;;;;;;;14.52;9.15;;;;;;;;;;6275892;22;20415;-67
2023/04/11 07:48:31;;;;;;;15.65;9.63;;;;;;;;;;6249415;22;20073;-67
2023/04/11 07:50:59;;;;;;;14.95;9.77;;;;;;;;;;6276197;22;20020;-67
2023/04/11 07:53:26;;;;;;;15.85;10.15;;;;;;;;;;6275697;22;20039;-67
2023/04/11 07:55:54;;;;;;;16.42;9.63;;;;;;;;;;6275646;22;20012;-67
2023/04/11 07:58:21;;;;;;;17.85;10.05;;;;;;;;;;6275952;22;20027;-67
2023/04/11 08:00:49;;;;;;;14.45;9.55;;;;;;;;;;6275765;22;20027;-67
2023/04/11 08:03:17;;;;;;;15.32;9.88;;;;;;;;;;6275820;22;20026;-67
2023/04/11 08:05:45;;;;;;;17.00;9.52;;;;;;;;;;6275794;22;20008;-67
2023/04/11 08:08:13;;;;;;;15.40;10.40;;;;;;;;;;6276058;22;20098;-69
2023/04/11 08:10:40;;;;;;;15.38;10.15;;;;;;;;;;6248422;22;20096;-67
2023/04/11 08:13:07;;;;;;;18.98;11.55;;;;;;;;;;6275763;22;20528;-67
2023/04/11 08:15:37;;;;;;;18.45;9.63;;;;;;;;;;6276080;22;20015;-67
2023/04/11 08:18:05;;;;;;;14.20;9.55;;;;;;;;;;6275545;22;20061;-66
2023/04/11 08:20:32;;;;;;;13.32;8.82;;;;;;;;;;6275753;22;20027;-66
2023/04/11 08:23:04;;;;;;;17.73;9.60;;;;;;;;;;6275977;22;20012;-66
2023/04/11 08:25:32;;;;;;;17.83;10.15;;;;;;;;;;6275507;22;20482;-66
2023/04/11 08:28:01;;;;;;;17.65;8.77;;;;;;;;;;6275362;22;20484;-66
2023/04/11 08:30:28;;;;;;;12.68;9.18;;;;;;;;;;6275499;22;20476;-67
2023/04/11 08:32:56;;;;;;;14.75;8.63;;;;;;;;;;6275663;22;20019;-66
2023/04/11 08:35:23;;;;;;;18.60;9.70;;;;;;;;;;6275495;22;20039;-66
2023/04/11 08:37:51;;;;;;;14.60;10.38;;;;;;;;;;6275450;22;20012;-67
2023/04/11 08:40:18;;;;;;;12.73;8.80;;;;;;;;;;6276494;22;20022;-67
2023/04/11 08:42:46;;;;;;;15.15;8.77;;;;;;;;;;6277320;22;20091;-67
2023/04/11 08:45:13;;;;;;;13.73;8.85;;;;;;;;;;6277505;22;20073;-67
2023/04/11 08:47:41;;;;;;;15.75;8.43;;;;;;;;;;6277240;22;20069;-67
2023/04/11 08:50:12;;;;;;;18.33;9.00;;;;;;;;;;6277258;22;20022;-67
2023/04/11 08:52:39;;;;;;;14.98;9.25;;;;;;;;;;6277439;22;20018;-67
2023/04/11 08:55:10;;;;;;;10.63;7.57;;;;;;;;;;6277574;22;20091;-67
2023/04/11 08:57:37;;;;;;;11.50;8.13;;;;;;;;;;6277608;22;20022;-67
2023/04/11 09:00:13;;;;;;;14.90;9.20;;;;;;;;;;6277692;22;20020;-67
2023/04/11 09:03:00;;;;;;;15.52;9.00;;;;;;;;;;6277558;22;20012;-67
2023/04/11 09:05:34;;;;;;;13.63;9.18;;;;;;;;;;6277529;22;20019;-67
2023/04/11 09:08:03;;;;;;;15.02;9.65;;;;;;;;;;6277333;22;20019;-67
2023/04/11 09:10:31;;;;;;;14.23;10.38;;;;;;;;;;6277361;22;20019;-67
2023/04/11 09:12:58;;;;;;;14.57;9.45;;;;;;;;;;6277182;22;20555;-67
2023/04/11 09:15:27;;;;;;;13.68;10.18;;;;;;;;;;6277276;22;20027;-68
2023/04/11 09:17:56;;;;;;;15.13;9.82;;;;;;;;;;6277142;22;20438;-67
2023/04/11 09:20:30;;;;;;;15.52;10.38;;;;;;;;;;6277270;22;20019;-68
2023/04/11 09:22:58;;;;;;;13.65;10.25;;;;;;;;;;6250466;22;20020;-68
2023/04/11 09:25:26;;;;;;;15.68;9.73;;;;;;;;;;6277039;22;20020;-68
2023/04/11 09:28:09;;;;;;;15.60;10.70;;;;;;;;;;6277218;22;20316;-67
2023/04/11 09:30:37;;;;;;;14.73;9.20;;;;;;;;;;6277036;22;20016;-66
2023/04/11 09:33:22;;;;;;;13.70;8.98;;;;;;;;;;6277426;22;20381;-66
2023/04/11 09:35:49;;;;;;;;;;;;;;;;;;6277813;22;20074;-67
2023/04/11 09:38:33;;;;;;;11.98;8.70;;;;;;;;;;6277117;22;19915;-67
2023/04/11 09:41:02;;;;;;;13.38;9.43;;;;;;;;;;6277038;22;20011;-66
2023/04/11 09:43:49;;;;;;;14.07;9.38;;;;;;;;;;6277134;22;20046;-66
2023/04/11 09:46:20;;;;;;;11.18;8.60;;;;;;;;;;6276893;22;20015;-68
2023/04/11 09:48:48;;;;;;;13.25;9.43;;;;;;;;;;6277355;22;20012;-67
2023/04/11 09:51:16;;;;;;;14.23;9.68;;;;;;;;;;6276961;22;20016;-67
2023/04/11 09:54:02;;;;;;;13.35;9.10;;;;;;;;;;6276970;22;20011;-67
2023/04/11 09:56:30;;;;;;;15.68;9.15;;;;;;;;;;6276929;22;20020;-67
2023/04/11 09:58:59;;;;;;;12.75;8.43;;;;;;;;;;6276900;22;20020;-66
2023/04/11 10:01:27;;;;;;;16.90;7.63;;;;;;;;;;6276664;22;20019;-67
2023/04/11 10:03:55;;;;;;;11.00;7.57;;;;;;;;;;6276924;22;20540;-67
2023/04/11 10:06:32;;;;;;;12.75;8.50;;;;;;;;;;6276758;22;20012;-67
2023/04/11 10:09:05;;;;;;;11.93;7.85;;;;;;;;;;6276417;22;20449;-67
2023/04/11 10:11:33;;;;;;;11.55;8.55;;;;;;;;;;6249789;22;20365;-66
2023/04/11 10:14:00;;;;;;;11.65;8.38;;;;;;;;;;6276692;22;20077;-66
2023/04/11 10:16:31;;;;;;;11.88;8.35;;;;;;;;;;6276728;22;20012;-66
2023/04/11 10:18:59;;;;;;;12.93;7.80;;;;;;;;;;6276558;22;20024;-66
2023/04/11 10:21:29;;;;;;;11.00;7.78;;;;;;;;;;6276529;22;20815;-66
2023/04/11 10:24:10;;;;;;;12.27;7.95;;;;;;;;;;6276383;22;20024;-66
2023/04/11 10:26:47;;;;;;;9.27;7.03;;;;;;;;;;6276582;22;20019;-66
2023/04/11 10:32:10;;;;;;;8.25;6.57;;;;;;;;;;6275951;22;20065;-66
2023/04/11 10:34:39;;;;;;;18.48;7.25;;;;;;;;;;6276118;22;20323;-66
2023/04/11 10:37:07;;;;;;;9.23;7.13;;;;;;;;;;6276465;22;20016;-67
2023/04/11 10:39:50;;;;;;;9.63;7.28;;;;;;;;;;6276437;22;20024;-67
2023/04/11 10:42:32;;;;;;;10.30;6.90;;;;;;;;;;6276531;22;20011;-66
2023/04/11 10:45:20;;;;;;;8.77;7.00;;;;;;;;;;6249423;22;20019;-66
2023/04/11 10:47:56;;;;;;;11.18;7.13;;;;;;;;;;6276383;22;20015;-66
2023/04/11 10:50:35;;;;;;;10.80;7.35;;;;;;;;;;6276253;22;20016;-66
2023/04/11 10:53:07;;;;;;;10.93;7.57;;;;;;;;;;6276451;22;20047;-66
2023/04/11 10:56:04;;;;;;;12.25;7.43;;;;;;;;;;6276386;22;20019;-66
2023/04/11 10:58:36;;;;;;;8.60;6.25;;;;;;;;;;6242198;22;20016;-66
2023/04/11 11:01:13;;;;;;;8.65;6.32;;;;;;;;;;6276600;22;20460;-66
2023/04/11 11:03:58;;;;;;;6.93;5.70;;;;;;;;;;6276081;22;20065;-66
2023/04/11 11:06:27;;;;;;;8.15;5.70;;;;;;;;;;6276269;22;20069;-66
2023/04/11 11:08:55;;;;;;;7.55;5.85;;;;;;;;;;6275934;22;20086;-66
2023/04/11 11:11:23;;;;;;;9.88;5.82;;;;;;;;;;6276086;22;20016;-66
2023/04/11 11:13:51;;;;;;;7.28;6.03;;;;;;;;;;6224346;22;20035;-66
2023/04/11 11:16:19;;;;;;;7.68;6.10;;;;;;;;;;6276179;22;20023;-66
2023/04/11 11:18:48;;;;;;;9.20;5.80;;;;;;;;;;6276302;22;20016;-66
2023/04/11 11:21:19;;;;;;;7.65;6.07;;;;;;;;;;6275988;22;20016;-66
2023/04/11 11:23:58;;;;;;;7.50;6.20;;;;;;;;;;6276077;22;20089;-66
2023/04/11 11:26:36;;;;;;;7.70;5.97;;;;;;;;;;6276129;22;20016;-66
2023/04/11 11:29:04;;;;;;;9.48;6.53;;;;;;;;;;6275834;22;20437;-67
2023/04/11 11:31:41;;;;;;;8.02;6.10;;;;;;;;;;6275698;22;20042;-67
2023/04/11 11:34:09;;;;;;;10.45;6.38;;;;;;;;;;6274996;22;20043;-67
2023/04/11 11:36:51;;;;;;;7.40;5.25;;;;;;;;;;6275944;22;20026;-67
2023/04/11 11:39:19;;;;;;;7.68;5.40;;;;;;;;;;6276246;22;20039;-67
2023/04/11 11:41:50;;;;;;;7.15;4.93;;;;;;;;;;6276104;22;20020;-67
2023/04/11 11:44:21;;;;;;;8.23;5.40;;;;;;;;;;6275834;22;20020;-67
2023/04/11 11:47:18;;;;;;;7.53;4.65;;;;;;;;;;6276027;22;20016;-67
2023/04/11 11:49:49;;;;;;;4.97;3.95;;;;;;;;;;6256848;22;20020;-67
2023/04/11 11:52:50;;;;;;;6.30;4.53;;;;;;;;;;6275869;22;20035;-67
2023/04/11 11:55:17;;;;;;;6.18;4.85;;;;;;;;;;6225999;22;20016;-67
2023/04/11 11:57:45;;;;;;;7.65;4.93;;;;;;;;;;6248644;22;20389;-67
2023/04/11 12:00:13;;;;;;;7.35;5.43;;;;;;;;;;6275682;22;20050;-67
2023/04/11 12:02:41;;;;;;;6.20;4.97;;;;;;;;;;6248919;22;20012;-67
2023/04/11 12:05:10;;;;;;;7.10;4.28;;;;;;;;;;6275772;22;20054;-67
2023/04/11 12:07:38;;;;;;;8.27;4.80;;;;;;;;;;6249023;22;20308;-66
2023/04/11 12:10:07;;;;;;;6.95;4.72;;;;;;;;;;6275815;22;20020;-66
2023/04/11 12:12:36;;;;;;;5.55;3.83;;;;;;;;;;6275763;22;20367;-66
2023/04/11 12:15:10;;;;;;;5.68;4.30;;;;;;;;;;6276158;22;20015;-66
2023/04/11 12:17:38;;;;;;;9.40;4.40;;;;;;;;;;6278091;22;20019;-66
2023/04/11 12:20:06;;;;;;;5.05;4.20;;;;;;;;;;6277857;22;20016;-66
2023/04/11 12:22:35;;;;;;;6.70;4.30;;;;;;;;;;6277848;22;20043;-66
2023/04/11 12:25:06;;;;;;;5.97;4.03;;;;;;;;;;6277604;22;20016;-67
2023/04/11 12:27:35;;;;;;;6.80;3.58;;;;;;;;;;6277676;22;20035;-66
2023/04/11 12:30:03;;;;;;;5.05;3.75;;;;;;;;;;6250586;22;20331;-67
2023/04/11 12:32:32;;;;;;;13.30;4.85;;;;;;;;;;6277687;22;20095;-66
2023/04/11 12:35:00;;;;;;;7.57;4.10;;;;;;;;;;6276457;22;20015;-66
2023/04/11 12:37:28;;;;;;;6.45;4.60;;;;;;;;;;6276714;22;20018;-66
2023/04/11 12:39:55;;;;;;;8.95;4.10;;;;;;;;;;6277705;22;20023;-67
2023/04/11 12:42:23;;;;;;;5.38;4.05;;;;;;;;;;6277544;22;20022;-67
2023/04/11 12:44:54;;;;;;;8.15;4.13;;;;;;;;;;6277181;22;20016;-67
2023/04/11 12:47:21;;;;;;;7.47;4.68;;;;;;;;;;6277666;22;20385;-66
2023/04/11 12:49:49;;;;;;;5.35;4.50;;;;;;;;;;6277501;22;20438;-67
2023/04/11 12:52:17;;;;;;;6.63;4.10;;;;;;;;;;6277662;22;20073;-66
2023/04/11 12:54:44;;;;;;;5.55;4.78;;;;;;;;;;6276811;22;20011;-65
2023/04/11 12:57:12;;;;;;;6.20;4.18;;;;;;;;;;6277258;22;20077;-68
2023/04/11 12:59:39;;;;;;;7.15;4.45;;;;;;;;;;6277093;22;20016;-67
2023/04/11 13:02:07;;;;;;;8.07;4.63;;;;;;;;;;6277244;22;20065;-67
2023/04/11 13:04:34;;;;;;;9.85;4.45;;;;;;;;;;6277398;22;20073;-67
2023/04/11 13:07:02;;;;;;;6.88;5.03;;;;;;;;;;6277359;22;20011;-67
2023/04/11 13:09:30;;;;;;;7.35;4.70;;;;;;;;;;6277045;22;20442;-66
2023/04/11 13:11:58;;;;;;;6.38;4.35;;;;;;;;;;6277378;22;20095;-67
2023/04/11 13:14:25;;;;;;;9.07;4.75;;;;;;;;;;6250093;22;20114;-67
2023/04/11 13:16:53;;;;;;;8.82;4.88;;;;;;;;;;6277349;22;20446;-67
2023/04/11 13:19:23;;;;;;;5.50;4.20;;;;;;;;;;6277434;22;20023;-67
2023/04/11 13:21:51;;;;;;;6.03;4.30;;;;;;;;;;6277466;22;20091;-67
2023/04/11 13:24:18;;;;;;;4.35;3.80;;;;;;;;;;6277163;22;20019;-67
2023/04/11 13:26:46;;;;;;;4.13;3.70;;;;;;;;;;6249598;22;20087;-66
2023/04/11 13:29:13;;;;;;;6.28;4.05;;;;;;;;;;6276928;22;20012;-66
2023/04/11 13:31:41;;;;;;;6.60;4.10;;;;;;;;;;6277051;22;20086;-66
2023/04/11 13:34:08;;;;;;;7.28;4.32;;;;;;;;;;6277157;22;20471;-67
2023/04/11 13:36:36;;;;;;;6.78;4.22;;;;;;;;;;6277081;22;20026;-66
2023/04/11 13:39:04;;;;;;;6.78;4.38;;;;;;;;;;6277123;22;20019;-66
2023/04/11 13:41:32;;;;;;;5.63;4.00;;;;;;;;;;6277054;22;20012;-66
2023/04/11 13:44:00;;;;;;;5.22;4.40;;;;;;;;;;6276458;22;20019;-66
2023/04/11 13:46:27;;;;;;;7.70;4.25;;;;;;;;;;6276567;22;20034;-66
2023/04/11 13:48:54;;;;;;;9.13;4.60;;;;;;;;;;6276531;22;20528;-66
2023/04/11 13:51:22;;;;;;;5.65;4.25;;;;;;;;;;6276413;22;20389;-66
2023/04/11 13:53:50;;;;;;;8.57;6.70;;;;;;;;;;6276536;22;20011;-67
2023/04/11 13:56:19;;;;;;;7.97;5.20;;;;;;;;;;6276896;22;20038;-66
2023/04/11 13:58:46;;;;;;;10.30;5.03;;;;;;;;;;6250033;22;20057;-66
2023/04/11 14:01:14;;;;;;;7.68;4.40;;;;;;;;;;6276635;22;20082;-66
2023/04/11 14:03:41;;;;;;;5.97;4.65;;;;;;;;;;6249765;22;20095;-65
2023/04/11 14:06:09;;;;;;;7.60;5.30;;;;;;;;;;6276652;22;20019;-65
2023/04/11 14:08:37;;;;;;;6.97;5.25;;;;;;;;;;6247888;22;20316;-65
2023/04/11 14:11:04;;;;;;;7.75;5.18;;;;;;;;;;6274647;22;20016;-66
2023/04/11 14:13:32;;;;;;;9.63;6.22;;;;;;;;;;6276047;22;20015;-65
2023/04/11 14:15:59;;;;;;;8.40;6.13;;;;;;;;;;6276500;22;20074;-65
2023/04/11 14:18:35;;;;;;;9.82;6.70;;;;;;;;;;6276359;22;20399;-65
2023/04/11 14:21:04;;;;;;;9.00;6.38;;;;;;;;;;6275710;22;20034;-66
2023/04/11 14:23:32;;;;;;;11.52;7.40;;;;;;;;;;6276066;22;20042;-65
2023/04/11 14:25:59;;;;;;;16.65;11.82;;;;;;;;;;6275974;22;20019;-65
2023/04/11 14:28:27;;;;;;;13.77;9.57;;;;;;;;;;6276043;22;20051;-66
2023/04/11 14:30:55;;;;;;;16.60;9.13;;;;;;;;;;6276004;22;20453;-66
2023/04/11 14:33:23;;;;;;;17.88;13.43;;;;;;;;;;6276193;22;20016;-66
2023/04/11 14:35:50;;;;;;;14.15;8.63;;;;;;;;;;6275719;22;20043;-66
2023/04/11 14:38:18;;;;;;;19.85;10.20;;;;;;;;;;6276019;22;20355;-66
2023/04/11 14:40:45;;;;;;;25.50;15.27;;;;;;;;;;6276081;22;20102;-66
2023/04/11 14:43:13;;;;;;;21.63;13.73;;;;;;;;;;6276170;22;20091;-66
2023/04/11 14:45:41;;;;;;;14.88;9.45;;;;;;;;;;6276147;22;20016;-66